createdAt,value
2023-01-11T00:01:12.086Z,53.84
2023-01-11T00:06:14.195Z,53.61
2023-01-11T00:11:17.436Z,53.73
2023-01-11T00:16:19.544Z,53.67
2023-01-11T00:21:22.718Z,53.61
2023-01-11T00:26:24.836Z,53.71
2023-01-11T00:31:26.988Z,53.78
2023-01-11T00:36:29.186Z,53.83
2023-01-11T00:41:49.627Z,53.71
2023-01-11T00:47:10.531Z,53.73
2023-01-11T00:52:12.735Z,53.78
2023-01-11T00:57:14.787Z,53.82
2023-01-11T01:02:16.917Z,53.95
2023-01-11T01:07:19.006Z,53.90
2023-01-11T01:12:39.685Z,53.76
2023-01-11T01:17:41.831Z,53.75
2023-01-11T01:22:44.045Z,53.76
2023-01-11T01:27:46.253Z,53.99
2023-01-11T01:32:48.373Z,53.88
2023-01-11T01:37:50.456Z,53.99
2023-01-11T01:42:55.755Z,53.72
2023-01-11T01:48:06.196Z,53.82
2023-01-11T01:53:16.304Z,53.88
2023-01-11T01:58:23.487Z,53.97
2023-01-11T02:03:27.256Z,54.18
2023-01-11T02:08:43.409Z,53.95
2023-01-11T02:13:46.371Z,53.91
2023-01-11T02:18:48.573Z,53.81
2023-01-11T02:24:10.599Z,54.05
2023-01-11T02:29:15.747Z,54.08
2023-01-11T02:34:32.661Z,54.04
2023-01-11T02:40:07.331Z,54.01
2023-01-11T02:45:31.260Z,53.83
2023-01-11T02:50:54.094Z,53.88
2023-01-11T02:56:00.270Z,53.77
2023-01-11T03:01:03.643Z,53.91
2023-01-11T03:06:11.846Z,53.96
2023-01-11T03:11:56.529Z,54.01
2023-01-11T03:17:22.562Z,53.90
2023-01-11T03:22:45.729Z,53.88
2023-01-11T03:27:53.173Z,53.93
2023-01-11T03:33:01.457Z,53.97
2023-01-11T03:38:20.859Z,54.07
2023-01-11T03:43:25.544Z,54.22
2023-01-11T03:48:40.222Z,53.90
2023-01-11T03:53:46.852Z,53.87
2023-01-11T03:58:49.076Z,53.87
2023-01-11T04:03:51.208Z,54.00
2023-01-11T04:08:53.297Z,54.09
2023-01-11T04:13:55.716Z,54.16
2023-01-11T04:18:58.157Z,54.13
2023-01-11T04:24:00.299Z,53.93
2023-01-11T04:29:02.419Z,54.08
2023-01-11T04:34:04.782Z,54.31
2023-01-11T04:39:10.706Z,54.20
2023-01-11T04:44:12.855Z,54.02
2023-01-11T04:49:15.162Z,54.10
2023-01-11T04:54:17.483Z,54.01
2023-01-11T04:59:19.573Z,54.21
2023-01-11T05:04:21.870Z,54.41
2023-01-11T05:09:24.113Z,54.31
2023-01-11T05:14:26.353Z,54.09
2023-01-11T05:19:28.596Z,54.05
2023-01-11T05:24:30.689Z,54.01
2023-01-11T05:29:32.814Z,54.12
2023-01-11T05:34:35.115Z,54.39
2023-01-11T05:39:37.293Z,54.33
2023-01-11T05:44:58.296Z,54.01
2023-01-11T05:50:00.495Z,54.04
2023-01-11T05:55:02.641Z,54.11
2023-01-11T06:00:05.220Z,54.10
2023-01-11T06:05:09.113Z,54.43
2023-01-11T06:10:11.649Z,54.33
2023-01-11T06:15:13.863Z,54.12
2023-01-11T06:20:16.226Z,54.16
2023-01-11T06:25:18.349Z,54.22
2023-01-11T06:30:20.891Z,54.38
2023-01-11T06:35:23.084Z,54.44
2023-01-11T06:40:25.214Z,54.21
2023-01-11T06:45:27.804Z,54.10
2023-01-11T06:50:29.884Z,54.12
2023-01-11T06:55:32.768Z,54.29
2023-01-11T07:00:34.915Z,54.52
2023-01-11T07:05:37.337Z,54.36
2023-01-11T07:10:39.475Z,54.30
2023-01-11T07:15:41.751Z,54.24
2023-01-11T07:20:43.965Z,54.15
2023-01-11T07:25:46.142Z,54.45
2023-01-11T07:30:58.227Z,54.38
2023-01-11T07:36:01.153Z,54.32
2023-01-11T07:41:23.168Z,54.32
2023-01-11T07:46:25.310Z,54.19
2023-01-11T07:51:27.497Z,54.23
2023-01-11T07:56:30.447Z,54.47
2023-01-11T08:01:32.624Z,54.33
2023-01-11T08:06:34.762Z,54.26
2023-01-11T08:11:55.384Z,54.27
2023-01-11T08:16:57.491Z,54.33
2023-01-11T08:21:59.648Z,54.45
2023-01-11T08:27:02.619Z,54.43
2023-01-11T08:32:06.347Z,54.32
2023-01-11T08:37:08.864Z,54.15
2023-01-11T08:42:11.068Z,54.03
2023-01-11T08:47:13.311Z,54.32
2023-01-11T08:52:15.562Z,54.29
2023-01-11T08:57:17.790Z,54.41
2023-01-11T09:02:19.928Z,54.27
2023-01-11T09:07:22.035Z,54.19
2023-01-11T09:12:24.331Z,54.23
2023-01-11T09:17:26.495Z,54.38
2023-01-11T09:22:28.793Z,54.36
2023-01-11T09:27:30.955Z,54.29
2023-01-11T09:32:33.052Z,54.24
2023-01-11T09:37:39.923Z,54.23
2023-01-11T09:42:43.605Z,54.21
2023-01-11T09:48:15.549Z,54.25
2023-01-11T09:53:32.190Z,54.45
2023-01-11T09:58:42.892Z,54.27
2023-01-11T10:04:00.131Z,54.33
2023-01-11T10:18:26.400Z,54.07
2023-01-11T10:20:47.772Z,54.08
2023-01-11T10:25:55.085Z,54.33
2023-01-11T10:31:11.611Z,54.35
2023-01-11T10:37:10.473Z,54.47
2023-01-11T10:42:21.839Z,54.49
2023-01-11T10:47:28.607Z,54.48
2023-01-11T10:52:32.896Z,54.66
2023-01-11T10:58:00.136Z,54.91
2023-01-11T11:03:24.879Z,54.84
2023-01-11T11:09:14.929Z,55.05
2023-01-11T11:14:27.547Z,55.15
2023-01-11T11:19:32.953Z,55.02
2023-01-11T11:24:43.203Z,55.36
2023-01-11T11:29:51.198Z,55.89
2023-01-11T11:34:54.244Z,55.93
2023-01-11T11:39:56.564Z,56.40
2023-01-11T11:45:26.424Z,56.61
2023-01-11T11:50:44.362Z,56.34
2023-01-11T11:55:47.375Z,56.51
2023-01-11T12:00:51.596Z,56.64
2023-01-11T12:05:58.831Z,57.35
2023-01-11T12:11:07.936Z,57.89
2023-01-11T12:16:23.841Z,58.43
2023-01-11T12:21:29.681Z,58.83
2023-01-11T12:27:18.491Z,59.20
2023-01-11T12:32:30.763Z,59.68
2023-01-11T12:37:53.114Z,59.82
2023-01-11T12:43:23.162Z,60.11
2023-01-11T12:48:49.973Z,60.28
2023-01-11T12:54:03.552Z,60.52
2023-01-11T12:59:34.540Z,60.63
2023-01-11T13:04:48.389Z,60.91
2023-01-11T13:10:08.324Z,61.23
2023-01-11T13:15:46.751Z,61.54
2023-01-11T13:21:03.232Z,61.65
2023-01-11T13:26:18.950Z,61.86
2023-01-11T13:31:22.333Z,62.18
2023-01-11T13:36:30.508Z,62.70
2023-01-11T13:41:41.866Z,62.88
2023-01-11T13:47:16.012Z,63.22
2023-01-11T13:52:21.796Z,63.39
2023-01-11T13:57:34.463Z,63.43
2023-01-11T14:02:52.120Z,63.49
2023-01-11T14:08:03.516Z,63.72
2023-01-11T14:13:39.299Z,63.77
2023-01-11T14:18:54.531Z,63.98
2023-01-11T14:23:57.385Z,64.19
2023-01-11T14:28:59.430Z,64.33
2023-01-11T14:34:31.640Z,64.42
2023-01-11T14:39:42.669Z,64.83
2023-01-11T14:45:16.947Z,64.98
2023-01-11T14:50:33.804Z,64.98
2023-01-11T14:55:46.603Z,65.16
2023-01-11T15:00:48.720Z,65.05
2023-01-11T15:06:23.585Z,65.11
2023-01-11T15:11:38.308Z,65.03
2023-01-11T15:17:10.498Z,65.05
2023-01-11T15:22:26.001Z,64.92
2023-01-11T15:27:36.862Z,64.94
2023-01-11T15:32:38.867Z,65.10
2023-01-11T15:37:53.145Z,65.11
2023-01-11T15:42:55.323Z,65.11
2023-01-11T15:48:12.355Z,65.05
2023-01-11T15:53:32.766Z,65.26
2023-01-11T15:59:12.335Z,65.34
2023-01-11T16:04:31.378Z,65.23
2023-01-11T16:09:36.320Z,65.20
2023-01-11T16:15:22.343Z,64.93
2023-01-11T16:20:28.047Z,64.59
2023-01-11T16:25:33.988Z,64.40
2023-01-11T16:30:36.127Z,63.94
2023-01-11T16:35:38.304Z,63.80
2023-01-11T16:40:43.141Z,63.36
2023-01-11T16:45:50.695Z,63.09
2023-01-11T16:51:14.557Z,62.82
2023-01-11T16:56:20.355Z,62.58
2023-01-11T17:01:22.685Z,62.35
2023-01-11T17:06:26.209Z,62.17
2023-01-11T17:11:50.254Z,61.83
2023-01-11T17:17:00.422Z,61.58
2023-01-11T17:22:06.687Z,61.61
2023-01-11T17:27:19.200Z,61.56
2023-01-11T17:32:43.151Z,61.61
2023-01-11T17:37:47.959Z,61.49
2023-01-11T17:43:09.925Z,61.50
2023-01-11T17:48:14.366Z,61.10
2023-01-11T17:53:22.775Z,60.92
2023-01-11T17:58:27.222Z,61.02
2023-01-11T18:03:29.273Z,61.10
2023-01-11T18:08:31.522Z,61.38
2023-01-11T18:13:35.117Z,61.52
2023-01-11T18:18:47.425Z,61.49
2023-01-11T18:23:49.632Z,61.24
2023-01-11T18:28:51.864Z,61.38
2023-01-11T18:33:54.043Z,61.38
2023-01-11T18:38:56.458Z,61.33
2023-01-11T18:43:58.837Z,61.30
2023-01-11T18:49:00.964Z,61.49
2023-01-11T18:54:03.066Z,61.63
2023-01-11T18:59:05.243Z,61.39
2023-01-11T19:04:07.904Z,60.97
2023-01-11T19:09:10.149Z,61.31
2023-01-11T19:14:12.334Z,60.89
2023-01-11T19:19:14.533Z,60.80
2023-01-11T19:24:16.620Z,60.69
2023-01-11T19:29:19.249Z,60.47
2023-01-11T19:34:22.041Z,60.59
2023-01-11T19:39:24.185Z,60.37
2023-01-11T19:44:30.553Z,60.13
2023-01-11T19:49:32.740Z,60.00
2023-01-11T19:54:34.865Z,59.47
2023-01-11T19:59:36.973Z,59.57
2023-01-11T20:04:40.059Z,59.67
2023-01-11T20:09:42.590Z,59.69
2023-01-11T20:14:46.370Z,59.36
2023-01-11T20:19:54.730Z,59.29
2023-01-11T20:24:56.731Z,59.08
2023-01-11T20:29:58.897Z,58.90
2023-01-11T20:35:01.167Z,58.96
2023-01-11T20:40:03.596Z,59.18
2023-01-11T20:45:06.320Z,58.95
2023-01-11T20:50:08.929Z,59.01
2023-01-11T20:55:11.118Z,58.67
2023-01-11T21:00:13.626Z,58.69
2023-01-11T21:05:16.250Z,58.59
2023-01-11T21:10:18.482Z,58.62
2023-01-11T21:15:20.551Z,58.24
2023-01-11T21:20:22.641Z,58.40
2023-01-11T21:25:24.857Z,58.51
2023-01-11T21:30:26.893Z,58.68
2023-01-11T21:35:29.032Z,58.53
2023-01-11T21:40:32.171Z,58.43
2023-01-11T21:45:34.231Z,58.42
2023-01-11T21:50:36.763Z,58.33
2023-01-11T21:55:38.968Z,58.38
2023-01-11T22:00:41.675Z,58.78
2023-01-11T22:05:43.914Z,58.94
2023-01-11T22:10:59.207Z,58.70
2023-01-11T22:16:06.308Z,58.62
2023-01-11T22:21:10.112Z,58.39
2023-01-11T22:26:15.024Z,58.61
2023-01-11T22:31:17.387Z,58.67
2023-01-11T22:36:20.386Z,58.77
2023-01-11T22:41:23.587Z,58.80
2023-01-11T22:46:27.597Z,58.75
2023-01-11T22:51:29.782Z,58.74
2023-01-11T22:56:32.846Z,58.64
2023-01-11T23:01:37.250Z,58.69
2023-01-11T23:06:41.497Z,58.76
2023-01-11T23:12:02.477Z,58.74
2023-01-11T23:17:08.703Z,58.80
2023-01-11T23:22:10.882Z,59.02
2023-01-11T23:27:12.981Z,58.73
2023-01-11T23:32:15.098Z,58.81
2023-01-11T23:37:17.188Z,58.84
2023-01-11T23:42:28.345Z,59.24
2023-01-11T23:47:31.664Z,59.28
2023-01-11T23:52:33.757Z,59.25
2023-01-11T23:57:35.966Z,59.11
